sensor_id;sensor_type;location;lat;lon;timestamp;P1;durP1;ratioP1;P2;durP2;ratioP2
18720;SDS011;9489;50.948;3.114;2023-08-21T00:01:20;6.85;;;4.40;;
18720;SDS011;9489;50.948;3.114;2023-08-21T00:03:46;6.95;;;3.80;;
18720;SDS011;9489;50.948;3.114;2023-08-21T00:06:11;8.90;;;4.45;;
18720;SDS011;9489;50.948;3.114;2023-08-21T00:08:37;7.35;;;4.22;;
18720;SDS011;9489;50.948;3.114;2023-08-21T00:11:03;7.38;;;4.60;;
18720;SDS011;9489;50.948;3.114;2023-08-21T00:13:28;11.38;;;4.45;;
18720;SDS011;9489;50.948;3.114;2023-08-21T00:15:54;9.70;;;4.70;;
18720;SDS011;9489;50.948;3.114;2023-08-21T00:18:20;8.85;;;4.78;;
18720;SDS011;9489;50.948;3.114;2023-08-21T00:20:46;6.03;;;4.30;;
18720;SDS011;9489;50.948;3.114;2023-08-21T00:23:12;8.38;;;4.20;;
18720;SDS011;9489;50.948;3.114;2023-08-21T00:25:38;6.40;;;3.80;;
18720;SDS011;9489;50.948;3.114;2023-08-21T00:28:04;8.30;;;4.53;;
18720;SDS011;9489;50.948;3.114;2023-08-21T00:30:29;6.50;;;4.45;;
18720;SDS011;9489;50.948;3.114;2023-08-21T00:32:55;6.32;;;4.47;;
18720;SDS011;9489;50.948;3.114;2023-08-21T00:35:21;9.90;;;5.32;;
18720;SDS011;9489;50.948;3.114;2023-08-21T00:37:46;12.20;;;5.40;;
18720;SDS011;9489;50.948;3.114;2023-08-21T00:40:12;7.90;;;5.00;;
18720;SDS011;9489;50.948;3.114;2023-08-21T00:42:38;6.30;;;4.30;;
18720;SDS011;9489;50.948;3.114;2023-08-21T00:45:04;10.18;;;5.28;;
18720;SDS011;9489;50.948;3.114;2023-08-21T00:47:33;7.55;;;4.70;;
18720;SDS011;9489;50.948;3.114;2023-08-21T00:50:00;7.90;;;4.47;;
18720;SDS011;9489;50.948;3.114;2023-08-21T00:52:26;6.93;;;3.83;;
18720;SDS011;9489;50.948;3.114;2023-08-21T00:54:53;14.35;;;4.55;;
18720;SDS011;9489;50.948;3.114;2023-08-21T00:57:20;9.60;;;4.65;;
18720;SDS011;9489;50.948;3.114;2023-08-21T00:59:47;7.63;;;3.80;;
18720;SDS011;9489;50.948;3.114;2023-08-21T01:02:13;7.50;;;3.67;;
18720;SDS011;9489;50.948;3.114;2023-08-21T01:04:39;6.35;;;3.67;;
18720;SDS011;9489;50.948;3.114;2023-08-21T01:07:05;6.55;;;3.88;;
18720;SDS011;9489;50.948;3.114;2023-08-21T01:10:19;6.53;;;3.97;;
18720;SDS011;9489;50.948;3.114;2023-08-21T01:12:25;7.32;;;3.65;;
18720;SDS011;9489;50.948;3.114;2023-08-21T01:15:02;5.85;;;3.53;;
18720;SDS011;9489;50.948;3.114;2023-08-21T01:17:30;6.85;;;3.30;;
18720;SDS011;9489;50.948;3.114;2023-08-21T01:19:59;5.90;;;3.47;;
18720;SDS011;9489;50.948;3.114;2023-08-21T01:22:26;6.47;;;3.05;;
18720;SDS011;9489;50.948;3.114;2023-08-21T01:24:53;7.00;;;3.10;;
18720;SDS011;9489;50.948;3.114;2023-08-21T01:27:19;4.50;;;3.03;;
18720;SDS011;9489;50.948;3.114;2023-08-21T01:29:46;6.13;;;2.92;;
18720;SDS011;9489;50.948;3.114;2023-08-21T01:35:03;9.43;;;2.90;;
18720;SDS011;9489;50.948;3.114;2023-08-21T01:37:31;6.28;;;2.95;;
18720;SDS011;9489;50.948;3.114;2023-08-21T01:40:00;7.95;;;3.47;;
18720;SDS011;9489;50.948;3.114;2023-08-21T01:42:25;7.28;;;3.33;;
18720;SDS011;9489;50.948;3.114;2023-08-21T01:44:51;4.43;;;3.35;;
18720;SDS011;9489;50.948;3.114;2023-08-21T01:47:17;6.95;;;3.67;;
18720;SDS011;9489;50.948;3.114;2023-08-21T01:49:42;4.97;;;3.55;;
18720;SDS011;9489;50.948;3.114;2023-08-21T01:52:08;5.40;;;3.47;;
18720;SDS011;9489;50.948;3.114;2023-08-21T01:54:34;8.55;;;4.25;;
18720;SDS011;9489;50.948;3.114;2023-08-21T01:57:00;8.13;;;3.75;;
18720;SDS011;9489;50.948;3.114;2023-08-21T01:59:26;5.75;;;3.55;;
18720;SDS011;9489;50.948;3.114;2023-08-21T02:01:51;8.10;;;4.07;;
18720;SDS011;9489;50.948;3.114;2023-08-21T02:04:18;5.57;;;3.80;;
18720;SDS011;9489;50.948;3.114;2023-08-21T02:06:44;7.25;;;4.07;;
18720;SDS011;9489;50.948;3.114;2023-08-21T02:09:10;5.78;;;4.25;;
18720;SDS011;9489;50.948;3.114;2023-08-21T02:11:35;8.35;;;4.82;;
18720;SDS011;9489;50.948;3.114;2023-08-21T02:14:01;5.85;;;4.30;;
18720;SDS011;9489;50.948;3.114;2023-08-21T02:16:27;8.00;;;4.68;;
18720;SDS011;9489;50.948;3.114;2023-08-21T02:18:53;8.27;;;5.45;;
18720;SDS011;9489;50.948;3.114;2023-08-21T02:21:20;9.38;;;4.70;;
18720;SDS011;9489;50.948;3.114;2023-08-21T02:23:46;12.25;;;4.80;;
18720;SDS011;9489;50.948;3.114;2023-08-21T02:26:12;6.78;;;4.60;;
18720;SDS011;9489;50.948;3.114;2023-08-21T02:28:38;8.27;;;4.80;;
18720;SDS011;9489;50.948;3.114;2023-08-21T02:31:04;6.20;;;5.15;;
18720;SDS011;9489;50.948;3.114;2023-08-21T02:33:30;7.97;;;4.57;;
18720;SDS011;9489;50.948;3.114;2023-08-21T02:35:56;7.82;;;5.07;;
18720;SDS011;9489;50.948;3.114;2023-08-21T02:38:22;8.35;;;5.05;;
18720;SDS011;9489;50.948;3.114;2023-08-21T02:40:47;7.78;;;5.15;;
18720;SDS011;9489;50.948;3.114;2023-08-21T02:43:13;9.18;;;4.95;;
18720;SDS011;9489;50.948;3.114;2023-08-21T02:45:39;10.80;;;5.68;;
18720;SDS011;9489;50.948;3.114;2023-08-21T02:48:05;12.10;;;6.13;;
18720;SDS011;9489;50.948;3.114;2023-08-21T02:50:31;8.65;;;6.32;;
18720;SDS011;9489;50.948;3.114;2023-08-21T02:52:56;9.88;;;6.53;;
18720;SDS011;9489;50.948;3.114;2023-08-21T02:55:22;9.80;;;5.38;;
18720;SDS011;9489;50.948;3.114;2023-08-21T02:57:47;8.30;;;5.63;;
18720;SDS011;9489;50.948;3.114;2023-08-21T03:00:13;9.63;;;5.75;;
18720;SDS011;9489;50.948;3.114;2023-08-21T03:02:39;10.30;;;6.22;;
18720;SDS011;9489;50.948;3.114;2023-08-21T03:05:08;7.00;;;5.88;;
18720;SDS011;9489;50.948;3.114;2023-08-21T03:07:34;7.97;;;6.28;;
18720;SDS011;9489;50.948;3.114;2023-08-21T03:10:00;11.90;;;6.40;;
18720;SDS011;9489;50.948;3.114;2023-08-21T03:12:27;9.35;;;7.15;;
18720;SDS011;9489;50.948;3.114;2023-08-21T03:14:53;8.88;;;6.72;;
18720;SDS011;9489;50.948;3.114;2023-08-21T03:17:19;8.50;;;7.10;;
18720;SDS011;9489;50.948;3.114;2023-08-21T03:19:44;14.82;;;8.07;;
18720;SDS011;9489;50.948;3.114;2023-08-21T03:22:10;10.95;;;7.60;;
18720;SDS011;9489;50.948;3.114;2023-08-21T03:24:36;10.43;;;7.75;;
18720;SDS011;9489;50.948;3.114;2023-08-21T03:27:02;11.20;;;7.72;;
18720;SDS011;9489;50.948;3.114;2023-08-21T03:29:28;13.63;;;8.90;;
18720;SDS011;9489;50.948;3.114;2023-08-21T03:31:54;12.90;;;8.52;;
18720;SDS011;9489;50.948;3.114;2023-08-21T03:34:19;12.05;;;8.10;;
18720;SDS011;9489;50.948;3.114;2023-08-21T03:36:45;12.75;;;9.32;;
18720;SDS011;9489;50.948;3.114;2023-08-21T03:39:11;14.07;;;9.52;;
18720;SDS011;9489;50.948;3.114;2023-08-21T03:41:37;13.13;;;8.88;;
18720;SDS011;9489;50.948;3.114;2023-08-21T03:44:02;12.65;;;9.45;;
18720;SDS011;9489;50.948;3.114;2023-08-21T03:46:28;13.60;;;8.98;;
18720;SDS011;9489;50.948;3.114;2023-08-21T03:48:54;14.07;;;10.10;;
18720;SDS011;9489;50.948;3.114;2023-08-21T03:51:19;13.55;;;10.05;;
18720;SDS011;9489;50.948;3.114;2023-08-21T03:53:45;12.75;;;10.10;;
18720;SDS011;9489;50.948;3.114;2023-08-21T03:56:11;12.10;;;9.45;;
18720;SDS011;9489;50.948;3.114;2023-08-21T03:58:36;13.13;;;9.93;;
18720;SDS011;9489;50.948;3.114;2023-08-21T04:01:02;13.98;;;10.00;;
18720;SDS011;9489;50.948;3.114;2023-08-21T04:03:28;14.10;;;10.20;;
18720;SDS011;9489;50.948;3.114;2023-08-21T04:05:53;16.50;;;10.50;;
18720;SDS011;9489;50.948;3.114;2023-08-21T04:08:21;14.05;;;10.98;;
18720;SDS011;9489;50.948;3.114;2023-08-21T04:10:47;13.95;;;11.18;;
18720;SDS011;9489;50.948;3.114;2023-08-21T04:13:13;14.52;;;11.77;;
18720;SDS011;9489;50.948;3.114;2023-08-21T04:15:39;17.90;;;12.55;;
18720;SDS011;9489;50.948;3.114;2023-08-21T04:18:09;13.52;;;11.68;;
18720;SDS011;9489;50.948;3.114;2023-08-21T04:20:34;19.00;;;13.18;;
18720;SDS011;9489;50.948;3.114;2023-08-21T04:23:00;13.57;;;12.10;;
18720;SDS011;9489;50.948;3.114;2023-08-21T04:25:26;15.45;;;13.27;;
18720;SDS011;9489;50.948;3.114;2023-08-21T04:27:51;19.48;;;14.35;;
18720;SDS011;9489;50.948;3.114;2023-08-21T04:30:17;20.55;;;14.60;;
18720;SDS011;9489;50.948;3.114;2023-08-21T04:32:43;18.75;;;15.05;;
18720;SDS011;9489;50.948;3.114;2023-08-21T04:35:08;17.15;;;14.38;;
18720;SDS011;9489;50.948;3.114;2023-08-21T04:37:34;15.98;;;14.43;;
18720;SDS011;9489;50.948;3.114;2023-08-21T04:40:00;19.58;;;14.45;;
18720;SDS011;9489;50.948;3.114;2023-08-21T04:42:25;20.98;;;14.23;;
18720;SDS011;9489;50.948;3.114;2023-08-21T04:44:51;16.70;;;13.80;;
18720;SDS011;9489;50.948;3.114;2023-08-21T04:47:24;21.80;;;15.10;;
18720;SDS011;9489;50.948;3.114;2023-08-21T04:49:54;20.58;;;15.43;;
18720;SDS011;9489;50.948;3.114;2023-08-21T04:52:21;18.02;;;14.95;;
18720;SDS011;9489;50.948;3.114;2023-08-21T04:54:48;21.10;;;16.52;;
18720;SDS011;9489;50.948;3.114;2023-08-21T04:57:14;21.33;;;15.57;;
18720;SDS011;9489;50.948;3.114;2023-08-21T04:59:40;23.60;;;16.95;;
18720;SDS011;9489;50.948;3.114;2023-08-21T05:02:06;22.30;;;16.00;;
18720;SDS011;9489;50.948;3.114;2023-08-21T05:04:32;18.05;;;16.15;;
18720;SDS011;9489;50.948;3.114;2023-08-21T05:06:59;20.27;;;16.83;;
18720;SDS011;9489;50.948;3.114;2023-08-21T05:09:25;25.42;;;17.88;;
18720;SDS011;9489;50.948;3.114;2023-08-21T05:11:51;21.23;;;17.83;;
18720;SDS011;9489;50.948;3.114;2023-08-21T05:14:17;20.70;;;18.25;;
18720;SDS011;9489;50.948;3.114;2023-08-21T05:16:44;23.05;;;19.13;;
18720;SDS011;9489;50.948;3.114;2023-08-21T05:19:10;22.98;;;18.10;;
18720;SDS011;9489;50.948;3.114;2023-08-21T05:21:36;21.83;;;17.60;;
18720;SDS011;9489;50.948;3.114;2023-08-21T05:24:01;24.92;;;19.00;;
18720;SDS011;9489;50.948;3.114;2023-08-21T05:26:27;23.58;;;19.67;;
18720;SDS011;9489;50.948;3.114;2023-08-21T05:28:53;22.60;;;18.42;;
18720;SDS011;9489;50.948;3.114;2023-08-21T05:31:18;27.10;;;21.15;;
18720;SDS011;9489;50.948;3.114;2023-08-21T05:33:44;28.48;;;22.50;;
18720;SDS011;9489;50.948;3.114;2023-08-21T05:36:10;35.03;;;25.50;;
18720;SDS011;9489;50.948;3.114;2023-08-21T05:38:36;32.97;;;26.75;;
18720;SDS011;9489;50.948;3.114;2023-08-21T05:41:01;37.75;;;27.08;;
18720;SDS011;9489;50.948;3.114;2023-08-21T05:43:27;38.47;;;28.35;;
18720;SDS011;9489;50.948;3.114;2023-08-21T05:45:53;37.08;;;27.63;;
18720;SDS011;9489;50.948;3.114;2023-08-21T05:48:19;37.35;;;27.58;;
18720;SDS011;9489;50.948;3.114;2023-08-21T05:50:45;38.13;;;29.10;;
18720;SDS011;9489;50.948;3.114;2023-08-21T05:53:16;44.42;;;32.42;;
18720;SDS011;9489;50.948;3.114;2023-08-21T05:55:42;49.25;;;32.78;;
18720;SDS011;9489;50.948;3.114;2023-08-21T05:58:07;47.28;;;32.10;;
18720;SDS011;9489;50.948;3.114;2023-08-21T06:00:33;47.40;;;33.13;;
18720;SDS011;9489;50.948;3.114;2023-08-21T06:03:00;53.88;;;34.47;;
18720;SDS011;9489;50.948;3.114;2023-08-21T06:05:25;55.25;;;34.22;;
18720;SDS011;9489;50.948;3.114;2023-08-21T06:07:51;47.65;;;31.50;;
18720;SDS011;9489;50.948;3.114;2023-08-21T06:10:17;50.78;;;34.40;;
18720;SDS011;9489;50.948;3.114;2023-08-21T06:12:43;53.33;;;35.45;;
18720;SDS011;9489;50.948;3.114;2023-08-21T06:15:09;59.08;;;37.22;;
18720;SDS011;9489;50.948;3.114;2023-08-21T06:17:36;54.92;;;34.78;;
18720;SDS011;9489;50.948;3.114;2023-08-21T06:20:02;52.60;;;37.63;;
18720;SDS011;9489;50.948;3.114;2023-08-21T06:22:31;56.97;;;37.15;;
18720;SDS011;9489;50.948;3.114;2023-08-21T06:24:57;56.00;;;37.28;;
18720;SDS011;9489;50.948;3.114;2023-08-21T06:27:23;51.25;;;34.70;;
18720;SDS011;9489;50.948;3.114;2023-08-21T06:29:48;46.85;;;35.35;;
18720;SDS011;9489;50.948;3.114;2023-08-21T06:32:14;53.85;;;35.92;;
18720;SDS011;9489;50.948;3.114;2023-08-21T06:34:40;49.20;;;36.40;;
18720;SDS011;9489;50.948;3.114;2023-08-21T06:37:06;58.75;;;36.35;;
18720;SDS011;9489;50.948;3.114;2023-08-21T06:39:31;58.30;;;37.03;;
18720;SDS011;9489;50.948;3.114;2023-08-21T06:41:57;49.80;;;36.63;;
18720;SDS011;9489;50.948;3.114;2023-08-21T06:44:23;58.78;;;37.95;;
18720;SDS011;9489;50.948;3.114;2023-08-21T06:46:48;53.97;;;35.22;;
18720;SDS011;9489;50.948;3.114;2023-08-21T06:49:14;54.97;;;33.08;;
18720;SDS011;9489;50.948;3.114;2023-08-21T06:51:40;50.83;;;34.08;;
18720;SDS011;9489;50.948;3.114;2023-08-21T06:54:05;46.10;;;32.85;;
18720;SDS011;9489;50.948;3.114;2023-08-21T06:56:31;51.53;;;33.20;;
18720;SDS011;9489;50.948;3.114;2023-08-21T06:58:57;45.88;;;29.90;;
18720;SDS011;9489;50.948;3.114;2023-08-21T07:01:23;50.47;;;31.08;;
18720;SDS011;9489;50.948;3.114;2023-08-21T07:03:48;44.40;;;29.60;;
18720;SDS011;9489;50.948;3.114;2023-08-21T07:06:22;46.00;;;30.02;;
18720;SDS011;9489;50.948;3.114;2023-08-21T07:08:48;46.42;;;30.88;;
18720;SDS011;9489;50.948;3.114;2023-08-21T07:11:14;50.97;;;31.13;;
18720;SDS011;9489;50.948;3.114;2023-08-21T07:13:42;48.33;;;30.08;;
18720;SDS011;9489;50.948;3.114;2023-08-21T07:16:08;43.53;;;30.85;;
18720;SDS011;9489;50.948;3.114;2023-08-21T07:18:34;47.10;;;30.58;;
18720;SDS011;9489;50.948;3.114;2023-08-21T07:21:03;43.60;;;29.73;;
18720;SDS011;9489;50.948;3.114;2023-08-21T07:23:31;44.28;;;30.80;;
18720;SDS011;9489;50.948;3.114;2023-08-21T07:25:58;47.42;;;31.48;;
18720;SDS011;9489;50.948;3.114;2023-08-21T07:28:23;39.88;;;28.17;;
18720;SDS011;9489;50.948;3.114;2023-08-21T07:30:56;37.08;;;26.15;;
18720;SDS011;9489;50.948;3.114;2023-08-21T07:33:22;23.13;;;20.58;;
18720;SDS011;9489;50.948;3.114;2023-08-21T07:36:09;27.17;;;21.55;;
18720;SDS011;9489;50.948;3.114;2023-08-21T07:38:40;25.67;;;20.58;;
18720;SDS011;9489;50.948;3.114;2023-08-21T07:41:06;26.90;;;20.77;;
18720;SDS011;9489;50.948;3.114;2023-08-21T07:43:35;30.83;;;22.10;;
18720;SDS011;9489;50.948;3.114;2023-08-21T07:46:05;30.67;;;20.17;;
18720;SDS011;9489;50.948;3.114;2023-08-21T07:48:31;26.88;;;19.35;;
18720;SDS011;9489;50.948;3.114;2023-08-21T07:50:57;27.80;;;20.58;;
18720;SDS011;9489;50.948;3.114;2023-08-21T07:53:23;26.48;;;20.73;;
18720;SDS011;9489;50.948;3.114;2023-08-21T07:55:49;27.98;;;20.58;;
18720;SDS011;9489;50.948;3.114;2023-08-21T07:58:15;23.10;;;18.70;;
18720;SDS011;9489;50.948;3.114;2023-08-21T08:00:40;24.80;;;19.05;;
18720;SDS011;9489;50.948;3.114;2023-08-21T08:03:07;20.08;;;17.30;;
18720;SDS011;9489;50.948;3.114;2023-08-21T08:05:36;21.65;;;18.83;;
18720;SDS011;9489;50.948;3.114;2023-08-21T08:08:02;21.60;;;18.67;;
18720;SDS011;9489;50.948;3.114;2023-08-21T08:10:28;19.88;;;18.02;;
18720;SDS011;9489;50.948;3.114;2023-08-21T08:12:54;22.58;;;20.38;;
18720;SDS011;9489;50.948;3.114;2023-08-21T08:15:20;21.20;;;18.88;;
18720;SDS011;9489;50.948;3.114;2023-08-21T08:17:46;19.42;;;17.48;;
18720;SDS011;9489;50.948;3.114;2023-08-21T08:20:12;19.98;;;18.02;;
18720;SDS011;9489;50.948;3.114;2023-08-21T08:22:39;19.00;;;17.20;;
18720;SDS011;9489;50.948;3.114;2023-08-21T08:25:07;18.23;;;16.58;;
18720;SDS011;9489;50.948;3.114;2023-08-21T08:27:33;19.45;;;17.65;;
18720;SDS011;9489;50.948;3.114;2023-08-21T08:29:59;19.65;;;18.13;;
18720;SDS011;9489;50.948;3.114;2023-08-21T08:32:25;16.67;;;15.18;;
18720;SDS011;9489;50.948;3.114;2023-08-21T08:34:54;17.13;;;15.57;;
18720;SDS011;9489;50.948;3.114;2023-08-21T08:37:20;20.23;;;18.50;;
18720;SDS011;9489;50.948;3.114;2023-08-21T08:39:46;17.70;;;15.88;;
18720;SDS011;9489;50.948;3.114;2023-08-21T08:42:12;19.48;;;17.88;;
18720;SDS011;9489;50.948;3.114;2023-08-21T08:44:41;18.92;;;17.23;;
18720;SDS011;9489;50.948;3.114;2023-08-21T08:47:07;18.00;;;16.30;;
18720;SDS011;9489;50.948;3.114;2023-08-21T08:49:33;16.65;;;15.07;;
18720;SDS011;9489;50.948;3.114;2023-08-21T08:52:00;19.00;;;17.23;;
18720;SDS011;9489;50.948;3.114;2023-08-21T08:54:26;16.42;;;15.02;;
18720;SDS011;9489;50.948;3.114;2023-08-21T08:56:52;19.40;;;17.67;;
18720;SDS011;9489;50.948;3.114;2023-08-21T08:59:18;16.52;;;15.23;;
18720;SDS011;9489;50.948;3.114;2023-08-21T09:01:44;17.10;;;15.60;;
18720;SDS011;9489;50.948;3.114;2023-08-21T09:04:10;14.25;;;13.18;;
18720;SDS011;9489;50.948;3.114;2023-08-21T09:06:36;17.75;;;15.88;;
18720;SDS011;9489;50.948;3.114;2023-08-21T09:09:03;15.57;;;14.18;;
18720;SDS011;9489;50.948;3.114;2023-08-21T09:11:29;13.65;;;12.60;;
18720;SDS011;9489;50.948;3.114;2023-08-21T09:13:55;13.40;;;12.27;;
18720;SDS011;9489;50.948;3.114;2023-08-21T09:16:21;13.52;;;12.35;;
18720;SDS011;9489;50.948;3.114;2023-08-21T09:18:50;12.43;;;11.43;;
18720;SDS011;9489;50.948;3.114;2023-08-21T09:21:20;12.23;;;11.05;;
18720;SDS011;9489;50.948;3.114;2023-08-21T09:23:47;15.07;;;14.07;;
18720;SDS011;9489;50.948;3.114;2023-08-21T09:26:20;13.30;;;12.10;;
18720;SDS011;9489;50.948;3.114;2023-08-21T09:28:50;13.48;;;11.80;;
18720;SDS011;9489;50.948;3.114;2023-08-21T09:31:37;11.27;;;10.40;;
18720;SDS011;9489;50.948;3.114;2023-08-21T09:34:03;11.80;;;10.82;;
18720;SDS011;9489;50.948;3.114;2023-08-21T09:36:32;10.30;;;9.50;;
18720;SDS011;9489;50.948;3.114;2023-08-21T09:38:59;10.88;;;10.10;;
18720;SDS011;9489;50.948;3.114;2023-08-21T09:41:25;11.07;;;10.25;;
18720;SDS011;9489;50.948;3.114;2023-08-21T09:43:52;8.70;;;7.95;;
18720;SDS011;9489;50.948;3.114;2023-08-21T09:46:24;7.57;;;6.85;;
18720;SDS011;9489;50.948;3.114;2023-08-21T09:48:53;10.45;;;9.55;;
18720;SDS011;9489;50.948;3.114;2023-08-21T09:51:20;10.90;;;10.00;;
18720;SDS011;9489;50.948;3.114;2023-08-21T09:53:49;9.35;;;8.65;;
18720;SDS011;9489;50.948;3.114;2023-08-21T09:56:17;10.18;;;9.35;;
18720;SDS011;9489;50.948;3.114;2023-08-21T09:58:43;9.20;;;8.50;;
18720;SDS011;9489;50.948;3.114;2023-08-21T10:01:10;9.18;;;8.35;;
18720;SDS011;9489;50.948;3.114;2023-08-21T10:03:42;9.05;;;8.35;;
18720;SDS011;9489;50.948;3.114;2023-08-21T10:06:12;10.75;;;9.85;;
18720;SDS011;9489;50.948;3.114;2023-08-21T10:08:45;9.43;;;8.70;;
18720;SDS011;9489;50.948;3.114;2023-08-21T10:11:13;6.50;;;6.00;;
18720;SDS011;9489;50.948;3.114;2023-08-21T10:13:39;7.35;;;6.75;;
18720;SDS011;9489;50.948;3.114;2023-08-21T10:16:05;8.10;;;7.43;;
18720;SDS011;9489;50.948;3.114;2023-08-21T10:18:33;8.43;;;7.78;;
18720;SDS011;9489;50.948;3.114;2023-08-21T10:21:19;8.55;;;6.93;;
18720;SDS011;9489;50.948;3.114;2023-08-21T10:23:50;7.50;;;6.70;;
18720;SDS011;9489;50.948;3.114;2023-08-21T10:26:20;6.93;;;6.22;;
18720;SDS011;9489;50.948;3.114;2023-08-21T10:28:50;6.88;;;6.20;;
18720;SDS011;9489;50.948;3.114;2023-08-21T10:33:53;6.95;;;5.05;;
18720;SDS011;9489;50.948;3.114;2023-08-21T10:39:14;9.43;;;7.50;;
18720;SDS011;9489;50.948;3.114;2023-08-21T10:41:55;7.70;;;7.00;;
18720;SDS011;9489;50.948;3.114;2023-08-21T10:47:16;6.78;;;6.18;;
18720;SDS011;9489;50.948;3.114;2023-08-21T10:49:55;6.15;;;5.55;;
18720;SDS011;9489;50.948;3.114;2023-08-21T10:52:28;5.88;;;5.22;;
18720;SDS011;9489;50.948;3.114;2023-08-21T10:54:58;7.90;;;7.38;;
18720;SDS011;9489;50.948;3.114;2023-08-21T10:57:26;8.70;;;8.07;;
18720;SDS011;9489;50.948;3.114;2023-08-21T11:00:11;8.82;;;8.23;;
18720;SDS011;9489;50.948;3.114;2023-08-21T11:02:40;8.85;;;8.25;;
18720;SDS011;9489;50.948;3.114;2023-08-21T11:05:09;10.27;;;9.50;;
18720;SDS011;9489;50.948;3.114;2023-08-21T11:10:08;5.55;;;5.05;;
18720;SDS011;9489;50.948;3.114;2023-08-21T11:12:36;5.68;;;4.82;;
18720;SDS011;9489;50.948;3.114;2023-08-21T11:15:02;4.63;;;4.15;;
18720;SDS011;9489;50.948;3.114;2023-08-21T11:17:29;10.70;;;7.20;;
18720;SDS011;9489;50.948;3.114;2023-08-21T11:19:55;5.88;;;5.35;;
18720;SDS011;9489;50.948;3.114;2023-08-21T11:22:28;6.15;;;5.50;;
18720;SDS011;9489;50.948;3.114;2023-08-21T11:24:57;8.45;;;7.85;;
18720;SDS011;9489;50.948;3.114;2023-08-21T11:27:22;7.28;;;6.72;;
18720;SDS011;9489;50.948;3.114;2023-08-21T11:29:50;8.82;;;8.10;;
18720;SDS011;9489;50.948;3.114;2023-08-21T11:32:17;8.75;;;8.15;;
18720;SDS011;9489;50.948;3.114;2023-08-21T11:34:48;9.52;;;8.82;;
18720;SDS011;9489;50.948;3.114;2023-08-21T11:37:16;6.97;;;6.38;;
18720;SDS011;9489;50.948;3.114;2023-08-21T11:39:52;6.53;;;5.97;;
18720;SDS011;9489;50.948;3.114;2023-08-21T11:42:22;6.88;;;6.25;;
18720;SDS011;9489;50.948;3.114;2023-08-21T11:44:54;7.70;;;6.88;;
18720;SDS011;9489;50.948;3.114;2023-08-21T11:47:21;6.47;;;5.15;;
18720;SDS011;9489;50.948;3.114;2023-08-21T11:49:48;5.03;;;4.63;;
18720;SDS011;9489;50.948;3.114;2023-08-21T11:52:18;4.53;;;4.13;;
18720;SDS011;9489;50.948;3.114;2023-08-21T11:54:47;5.70;;;5.05;;
18720;SDS011;9489;50.948;3.114;2023-08-21T11:57:14;6.15;;;5.63;;
18720;SDS011;9489;50.948;3.114;2023-08-21T11:59:40;5.32;;;4.80;;
18720;SDS011;9489;50.948;3.114;2023-08-21T12:04:42;4.65;;;3.92;;
18720;SDS011;9489;50.948;3.114;2023-08-21T12:07:08;5.00;;;4.43;;
18720;SDS011;9489;50.948;3.114;2023-08-21T12:09:34;3.30;;;3.00;;
18720;SDS011;9489;50.948;3.114;2023-08-21T12:12:00;4.18;;;3.88;;
18720;SDS011;9489;50.948;3.114;2023-08-21T12:14:26;3.33;;;2.58;;
18720;SDS011;9489;50.948;3.114;2023-08-21T12:16:53;5.00;;;4.50;;
18720;SDS011;9489;50.948;3.114;2023-08-21T12:19:19;4.32;;;3.80;;
18720;SDS011;9489;50.948;3.114;2023-08-21T12:21:46;5.13;;;4.60;;
18720;SDS011;9489;50.948;3.114;2023-08-21T12:24:12;4.13;;;3.50;;
18720;SDS011;9489;50.948;3.114;2023-08-21T12:26:37;3.30;;;3.00;;
18720;SDS011;9489;50.948;3.114;2023-08-21T12:29:03;2.75;;;1.92;;
18720;SDS011;9489;50.948;3.114;2023-08-21T12:31:29;3.17;;;2.00;;
18720;SDS011;9489;50.948;3.114;2023-08-21T12:33:55;3.35;;;1.77;;
18720;SDS011;9489;50.948;3.114;2023-08-21T12:36:21;2.83;;;1.63;;
18720;SDS011;9489;50.948;3.114;2023-08-21T12:38:49;2.55;;;1.67;;
18720;SDS011;9489;50.948;3.114;2023-08-21T12:41:15;3.78;;;2.25;;
18720;SDS011;9489;50.948;3.114;2023-08-21T12:43:41;2.45;;;1.90;;
18720;SDS011;9489;50.948;3.114;2023-08-21T12:46:06;2.67;;;1.92;;
18720;SDS011;9489;50.948;3.114;2023-08-21T12:48:32;3.80;;;2.03;;
18720;SDS011;9489;50.948;3.114;2023-08-21T12:50:58;3.78;;;1.88;;
18720;SDS011;9489;50.948;3.114;2023-08-21T12:53:23;1.80;;;1.50;;
18720;SDS011;9489;50.948;3.114;2023-08-21T12:55:49;3.80;;;1.60;;
18720;SDS011;9489;50.948;3.114;2023-08-21T12:58:15;8.13;;;7.53;;
18720;SDS011;9489;50.948;3.114;2023-08-21T13:00:40;3.17;;;1.60;;
18720;SDS011;9489;50.948;3.114;2023-08-21T13:03:06;3.15;;;1.98;;
18720;SDS011;9489;50.948;3.114;2023-08-21T13:05:33;2.05;;;1.50;;
18720;SDS011;9489;50.948;3.114;2023-08-21T13:07:59;2.55;;;1.58;;
18720;SDS011;9489;50.948;3.114;2023-08-21T13:10:25;3.05;;;1.50;;
18720;SDS011;9489;50.948;3.114;2023-08-21T13:12:50;3.42;;;1.48;;
18720;SDS011;9489;50.948;3.114;2023-08-21T13:15:17;2.85;;;1.50;;
18720;SDS011;9489;50.948;3.114;2023-08-21T13:17:42;2.15;;;0.93;;
18720;SDS011;9489;50.948;3.114;2023-08-21T13:20:08;3.60;;;1.80;;
18720;SDS011;9489;50.948;3.114;2023-08-21T13:22:48;3.08;;;1.35;;
18720;SDS011;9489;50.948;3.114;2023-08-21T13:25:23;3.90;;;1.70;;
18720;SDS011;9489;50.948;3.114;2023-08-21T13:27:50;4.30;;;2.45;;
18720;SDS011;9489;50.948;3.114;2023-08-21T13:30:16;3.65;;;2.05;;
18720;SDS011;9489;50.948;3.114;2023-08-21T13:32:43;3.60;;;1.90;;
18720;SDS011;9489;50.948;3.114;2023-08-21T13:35:09;2.92;;;1.98;;
18720;SDS011;9489;50.948;3.114;2023-08-21T13:37:35;3.38;;;2.42;;
18720;SDS011;9489;50.948;3.114;2023-08-21T13:40:02;2.65;;;1.85;;
18720;SDS011;9489;50.948;3.114;2023-08-21T13:42:37;2.88;;;2.00;;
18720;SDS011;9489;50.948;3.114;2023-08-21T13:45:06;3.60;;;2.10;;
18720;SDS011;9489;50.948;3.114;2023-08-21T13:47:34;2.72;;;1.83;;
18720;SDS011;9489;50.948;3.114;2023-08-21T13:50:00;6.20;;;5.45;;
18720;SDS011;9489;50.948;3.114;2023-08-21T13:52:26;6.07;;;5.47;;
18720;SDS011;9489;50.948;3.114;2023-08-21T13:54:51;4.55;;;3.60;;
18720;SDS011;9489;50.948;3.114;2023-08-21T13:57:17;4.63;;;4.28;;
18720;SDS011;9489;50.948;3.114;2023-08-21T13:59:42;4.47;;;3.60;;
18720;SDS011;9489;50.948;3.114;2023-08-21T14:02:08;6.18;;;5.50;;
18720;SDS011;9489;50.948;3.114;2023-08-21T14:04:34;5.43;;;4.93;;
18720;SDS011;9489;50.948;3.114;2023-08-21T14:06:59;5.28;;;4.78;;
18720;SDS011;9489;50.948;3.114;2023-08-21T14:09:25;5.45;;;4.85;;
18720;SDS011;9489;50.948;3.114;2023-08-21T14:11:50;9.77;;;8.95;;
18720;SDS011;9489;50.948;3.114;2023-08-21T14:14:16;9.52;;;8.40;;
18720;SDS011;9489;50.948;3.114;2023-08-21T14:16:42;9.25;;;8.52;;
18720;SDS011;9489;50.948;3.114;2023-08-21T14:19:07;11.30;;;10.00;;
18720;SDS011;9489;50.948;3.114;2023-08-21T14:21:33;11.10;;;10.13;;
18720;SDS011;9489;50.948;3.114;2023-08-21T14:23:59;9.10;;;8.27;;
18720;SDS011;9489;50.948;3.114;2023-08-21T14:26:25;9.68;;;8.77;;
18720;SDS011;9489;50.948;3.114;2023-08-21T14:28:51;8.88;;;8.05;;
18720;SDS011;9489;50.948;3.114;2023-08-21T14:31:16;7.68;;;7.07;;
18720;SDS011;9489;50.948;3.114;2023-08-21T14:33:42;8.32;;;7.45;;
18720;SDS011;9489;50.948;3.114;2023-08-21T14:36:08;7.80;;;7.18;;
18720;SDS011;9489;50.948;3.114;2023-08-21T14:38:34;8.98;;;8.07;;
18720;SDS011;9489;50.948;3.114;2023-08-21T14:40:59;7.72;;;7.03;;
18720;SDS011;9489;50.948;3.114;2023-08-21T14:43:25;7.47;;;6.72;;
18720;SDS011;9489;50.948;3.114;2023-08-21T14:45:51;6.97;;;6.10;;
18720;SDS011;9489;50.948;3.114;2023-08-21T14:48:17;7.97;;;6.88;;
18720;SDS011;9489;50.948;3.114;2023-08-21T14:50:42;8.65;;;7.65;;
18720;SDS011;9489;50.948;3.114;2023-08-21T14:53:08;9.32;;;8.43;;
18720;SDS011;9489;50.948;3.114;2023-08-21T14:55:34;9.95;;;9.05;;
18720;SDS011;9489;50.948;3.114;2023-08-21T14:57:59;8.45;;;7.70;;
18720;SDS011;9489;50.948;3.114;2023-08-21T15:00:30;10.70;;;9.68;;
18720;SDS011;9489;50.948;3.114;2023-08-21T15:02:56;10.25;;;9.45;;
18720;SDS011;9489;50.948;3.114;2023-08-21T15:05:21;9.05;;;8.07;;